Time,TemperatureF,DewpointF,PressureIn,WindDirection,WindDirectionDegrees,WindSpeedMPH,WindSpeedGustMPH,Humidity,HourlyPrecipIn,Conditions,Clouds,dailyrainin,SolarRadiationWatts/m^2,SoftwareType,DateUTC
2013-07-17 00:10:00,78.8,75.0,30.19,SSE,147,0.0,0.0,89,0.00,,,0.00,0,weatherlink.com 1.10,2013-07-17 04:10:00,
2013-07-17 00:25:00,78.7,75.0,30.19,SSE,147,0.0,0.0,89,0.00,,,0.00,0,weatherlink.com 1.10,2013-07-17 04:25:00,
2013-07-17 00:40:00,78.8,76.0,30.19,SSE,147,0.0,0.0,90,0.00,,,0.00,0,weatherlink.com 1.10,2013-07-17 04:40:00,
2013-07-17 00:55:00,78.4,75.0,30.18,SSE,147,0.0,0.0,90,0.00,,,0.00,0,weatherlink.com 1.10,2013-07-17 04:55:00,
2013-07-17 01:10:00,78.9,76.0,30.18,SE,146,0.0,4.0,90,0.00,,,0.00,0,weatherlink.com 1.10,2013-07-17 05:10:00,
2013-07-17 01:25:00,79.2,76.0,30.18,SE,146,0.0,0.0,90,0.00,,,0.00,0,weatherlink.com 1.10,2013-07-17 05:25:00,
2013-07-17 01:40:00,78.6,76.0,30.17,SE,146,0.0,0.0,90,0.00,,,0.00,0,weatherlink.com 1.10,2013-07-17 05:40:00,
2013-07-17 01:55:00,78.5,76.0,30.17,SE,146,0.0,0.0,91,0.00,,,0.00,0,weatherlink.com 1.10,2013-07-17 05:55:00,
2013-07-17 02:10:00,78.1,76.0,30.16,SE,146,0.0,0.0,92,0.00,,,0.00,0,weatherlink.com 1.10,2013-07-17 06:10:00,
2013-07-17 02:25:00,77.9,76.0,30.16,SE,146,0.0,0.0,92,0.00,,,0.00,0,weatherlink.com 1.10,2013-07-17 06:25:00,
2013-07-17 02:40:00,78.1,76.0,30.16,SE,146,0.0,0.0,93,0.00,,,0.00,0,weatherlink.com 1.10,2013-07-17 06:40:00,
2013-07-17 02:55:00,77.7,76.0,30.16,SE,146,0.0,0.0,93,0.00,,,0.00,0,weatherlink.com 1.10,2013-07-17 06:55:00,
2013-07-17 03:10:00,78.0,76.0,30.16,SE,146,0.0,0.0,94,0.00,,,0.00,0,weatherlink.com 1.10,2013-07-17 07:10:00,
2013-07-17 03:25:00,77.8,76.0,30.16,SE,146,0.0,0.0,94,0.00,,,0.00,0,weatherlink.com 1.10,2013-07-17 07:25:00,
2013-07-17 03:40:00,77.6,76.0,30.16,SE,146,0.0,0.0,94,0.00,,,0.00,0,weatherlink.com 1.10,2013-07-17 07:40:00,
2013-07-17 03:55:00,77.6,76.0,30.16,SE,146,0.0,0.0,95,0.00,,,0.00,0,weatherlink.com 1.10,2013-07-17 07:55:00,
2013-07-17 04:10:00,77.4,76.0,30.16,SE,146,0.0,0.0,94,0.00,,,0.00,0,weatherlink.com 1.10,2013-07-17 08:10:00,
2013-07-17 04:25:00,77.8,76.0,30.16,SE,146,0.0,0.0,95,0.00,,,0.00,0,weatherlink.com 1.10,2013-07-17 08:25:00,
2013-07-17 04:40:00,78.0,77.0,30.16,SE,146,0.0,0.0,95,0.00,,,0.00,0,weatherlink.com 1.10,2013-07-17 08:40:00,
2013-07-17 04:55:00,77.8,76.0,30.16,SE,146,0.0,0.0,95,0.00,,,0.00,0,weatherlink.com 1.10,2013-07-17 08:55:00,
2013-07-17 05:10:00,77.8,76.0,30.16,SE,146,0.0,0.0,95,0.00,,,0.00,0,weatherlink.com 1.10,2013-07-17 09:10:00,
2013-07-17 05:25:00,77.7,76.0,30.16,SE,146,0.0,0.0,95,0.00,,,0.00,0,weatherlink.com 1.10,2013-07-17 09:25:00,
2013-07-17 05:40:00,77.5,76.0,30.16,SSE,154,0.0,0.0,96,0.00,,,0.00,0,weatherlink.com 1.10,2013-07-17 09:40:00,
2013-07-17 05:55:00,77.2,76.0,30.16,NW,326,2.0,5.0,96,0.00,,,0.00,0,weatherlink.com 1.10,2013-07-17 09:55:00,
2013-07-17 06:10:00,77.0,76.0,30.16,NW,326,0.0,3.0,96,0.00,,,0.00,0,weatherlink.com 1.10,2013-07-17 10:10:00,
2013-07-17 06:25:00,76.6,75.0,30.17,NNW,341,2.0,4.0,96,0.00,,,0.00,0,weatherlink.com 1.10,2013-07-17 10:25:00,
2013-07-17 06:40:00,76.2,75.0,30.17,NNW,339,0.0,0.0,96,0.00,,,0.00,7,weatherlink.com 1.10,2013-07-17 10:40:00,
2013-07-17 06:55:00,76.3,75.0,30.18,NNW,339,0.0,0.0,96,0.00,,,0.00,26,weatherlink.com 1.10,2013-07-17 10:55:00,
2013-07-17 07:10:00,76.4,75.0,30.18,NNW,340,0.0,0.0,96,0.00,,,0.00,35,weatherlink.com 1.10,2013-07-17 11:10:00,
2013-07-17 07:26:00,76.4,75.0,30.18,NNW,341,0.0,4.0,96,0.00,,,0.00,107,weatherlink.com 1.10,2013-07-17 11:26:00,
2013-07-17 07:40:00,76.6,75.0,30.18,NNW,334,3.0,4.0,96,0.00,,,0.00,149,weatherlink.com 1.10,2013-07-17 11:40:00,
2013-07-17 07:55:00,77.1,76.0,30.18,NW,316,4.0,5.0,96,0.00,,,0.00,193,weatherlink.com 1.10,2013-07-17 11:55:00,
2013-07-17 08:10:00,77.6,76.0,30.18,North,356,2.0,7.0,96,0.00,,,0.00,246,weatherlink.com 1.10,2013-07-17 12:10:00,
2013-07-17 08:25:00,78.0,77.0,30.18,NNW,335,3.0,5.0,95,0.00,,,0.00,299,weatherlink.com 1.10,2013-07-17 12:25:00,
2013-07-17 08:40:00,78.7,76.0,30.19,North,352,3.0,7.0,92,0.00,,,0.00,343,weatherlink.com 1.10,2013-07-17 12:40:00,
2013-07-17 08:55:00,79.7,77.0,30.19,NW,321,4.0,9.0,90,0.00,,,0.00,387,weatherlink.com 1.10,2013-07-17 12:55:00,
2013-07-17 09:10:00,80.6,77.0,30.19,NNW,329,3.0,7.0,88,0.00,,,0.00,446,weatherlink.com 1.10,2013-07-17 13:10:00,
2013-07-17 09:25:00,81.3,76.0,30.19,NW,324,7.0,10.0,83,0.00,,,0.00,494,weatherlink.com 1.10,2013-07-17 13:25:00,
2013-07-17 09:40:00,82.2,76.0,30.19,NW,306,4.0,6.0,82,0.00,,,0.00,563,weatherlink.com 1.10,2013-07-17 13:40:00,
2013-07-17 09:55:00,82.7,76.0,30.19,NW,325,4.0,7.0,80,0.00,,,0.00,721,weatherlink.com 1.10,2013-07-17 13:55:00,
2013-07-17 10:10:00,82.8,76.0,30.19,NW,326,2.0,7.0,80,0.00,,,0.00,186,weatherlink.com 1.10,2013-07-17 14:10:00,
2013-07-17 10:25:00,83.5,76.0,30.19,NW,315,3.0,7.0,78,0.00,,,0.00,221,weatherlink.com 1.10,2013-07-17 14:25:00,
2013-07-17 10:40:00,84.3,77.0,30.19,NNW,332,7.0,9.0,78,0.00,,,0.00,708,weatherlink.com 1.10,2013-07-17 14:40:00,
2013-07-17 10:55:00,85.4,77.0,30.19,NW,326,4.0,10.0,77,0.00,,,0.00,744,weatherlink.com 1.10,2013-07-17 14:55:00,
2013-07-17 11:11:00,86.2,77.0,30.19,NW,317,4.0,9.0,74,0.00,,,0.00,780,weatherlink.com 1.10,2013-07-17 15:11:00,
2013-07-17 11:26:00,86.6,77.0,30.19,NNW,347,5.0,10.0,73,0.00,,,0.00,817,weatherlink.com 1.10,2013-07-17 15:26:00,
2013-07-17 11:41:00,87.2,76.0,30.18,NW,322,5.0,10.0,70,0.00,,,0.00,853,weatherlink.com 1.10,2013-07-17 15:41:00,
2013-07-17 11:56:00,87.2,77.0,30.18,NNW,333,4.0,7.0,72,0.00,,,0.00,926,weatherlink.com 1.10,2013-07-17 15:56:00,
2013-07-17 12:11:00,87.4,77.0,30.17,ESE,103,3.0,6.0,72,0.00,,,0.00,988,weatherlink.com 1.10,2013-07-17 16:11:00,
2013-07-17 12:26:00,85.5,77.0,30.17,South,175,7.0,9.0,76,0.00,,,0.00,932,weatherlink.com 1.10,2013-07-17 16:26:00,
2013-07-17 12:41:00,85.8,77.0,30.16,SSE,168,8.0,8.0,76,0.00,,,0.00,970,weatherlink.com 1.10,2013-07-17 16:41:00,
2013-07-17 12:56:00,85.0,79.0,30.15,South,171,9.0,11.0,81,0.00,,,0.00,313,weatherlink.com 1.10,2013-07-17 16:56:00,
2013-07-17 13:11:00,85.0,78.0,30.15,SSE,168,8.0,12.0,80,0.00,,,0.00,946,weatherlink.com 1.10,2013-07-17 17:11:00,
2013-07-17 13:26:00,85.3,78.0,30.14,SSE,168,8.0,11.0,78,0.00,,,0.00,970,weatherlink.com 1.10,2013-07-17 17:26:00,
2013-07-17 13:41:00,85.9,79.0,30.14,South,170,9.0,12.0,79,0.00,,,0.00,960,weatherlink.com 1.10,2013-07-17 17:41:00,
2013-07-17 13:56:00,85.4,78.0,30.14,South,180,10.0,13.0,79,0.00,,,0.00,919,weatherlink.com 1.10,2013-07-17 17:56:00,
2013-07-17 14:11:00,85.5,79.0,30.13,South,184,12.0,13.0,80,0.00,,,0.00,907,weatherlink.com 1.10,2013-07-17 18:11:00,
2013-07-17 14:26:00,85.0,78.0,30.13,South,183,8.0,14.0,80,0.00,,,0.00,900,weatherlink.com 1.10,2013-07-17 18:26:00,
2013-07-17 14:41:00,85.3,79.0,30.12,South,176,10.0,13.0,81,0.00,,,0.00,875,weatherlink.com 1.10,2013-07-17 18:41:00,
2013-07-17 14:56:00,85.2,78.0,30.12,South,184,10.0,14.0,80,0.00,,,0.00,844,weatherlink.com 1.10,2013-07-17 18:56:00,
2013-07-17 15:11:00,85.2,79.0,30.11,South,184,11.0,14.0,81,0.00,,,0.00,823,weatherlink.com 1.10,2013-07-17 19:11:00,
2013-07-17 15:26:00,85.1,79.0,30.11,South,180,10.0,15.0,81,0.00,,,0.00,796,weatherlink.com 1.10,2013-07-17 19:26:00,
2013-07-17 15:41:00,85.3,79.0,30.09,South,175,14.0,15.0,81,0.00,,,0.00,773,weatherlink.com 1.10,2013-07-17 19:41:00,
2013-07-17 15:56:00,85.2,79.0,30.09,South,180,10.0,14.0,81,0.00,,,0.00,744,weatherlink.com 1.10,2013-07-17 19:56:00,
2013-07-17 16:11:00,85.1,79.0,30.08,South,180,10.0,15.0,81,0.00,,,0.00,719,weatherlink.com 1.10,2013-07-17 20:11:00,
2013-07-17 16:26:00,85.0,79.0,30.09,South,180,12.0,14.0,82,0.00,,,0.00,684,weatherlink.com 1.10,2013-07-17 20:26:00,
2013-07-17 16:41:00,84.8,78.0,30.08,SSW,197,7.0,14.0,81,0.00,,,0.00,629,weatherlink.com 1.10,2013-07-17 20:41:00,
2013-07-17 16:56:00,84.7,78.0,30.07,South,178,10.0,16.0,81,0.00,,,0.00,559,weatherlink.com 1.10,2013-07-17 20:56:00,
2013-07-17 17:11:00,84.6,78.0,30.07,South,190,8.0,12.0,81,0.00,,,0.00,541,weatherlink.com 1.10,2013-07-17 21:11:00,
2013-07-17 17:26:00,84.8,78.0,30.07,South,190,8.0,15.0,81,0.00,,,0.00,494,weatherlink.com 1.10,2013-07-17 21:26:00,
2013-07-17 17:41:00,84.7,78.0,30.08,South,182,8.0,13.0,80,0.00,,,0.00,422,weatherlink.com 1.10,2013-07-17 21:41:00,
2013-07-17 17:56:00,84.9,79.0,30.08,South,175,7.0,11.0,81,0.00,,,0.00,408,weatherlink.com 1.10,2013-07-17 21:56:00,
2013-07-17 18:11:00,84.3,78.0,30.09,South,188,6.0,11.0,82,0.00,,,0.00,111,weatherlink.com 1.10,2013-07-17 22:11:00,
2013-07-17 18:26:00,83.8,78.0,30.08,SSW,195,6.0,10.0,82,0.00,,,0.00,105,weatherlink.com 1.10,2013-07-17 22:26:00,
2013-07-17 18:41:00,83.7,78.0,30.08,SW,219,5.0,8.0,83,0.00,,,0.00,104,weatherlink.com 1.10,2013-07-17 22:41:00,
2013-07-17 18:56:00,83.5,78.0,30.08,South,184,6.0,9.0,83,0.00,,,0.00,83,weatherlink.com 1.10,2013-07-17 22:56:00,
2013-07-17 19:11:00,83.4,78.0,30.09,South,178,5.0,8.0,83,0.00,,,0.00,53,weatherlink.com 1.10,2013-07-17 23:11:00,
2013-07-17 19:26:00,83.3,78.0,30.11,NNW,340,4.0,6.0,83,0.00,,,0.00,18,weatherlink.com 1.10,2013-07-17 23:26:00,
2013-07-17 19:41:00,83.0,78.0,30.11,NE,45,1.0,5.0,84,0.00,,,0.00,19,weatherlink.com 1.10,2013-07-17 23:41:00,
2013-07-17 19:57:00,81.8,75.0,30.11,NE,45,2.0,7.0,80,0.00,,,0.00,9,weatherlink.com 1.10,2013-07-17 23:57:00,
2013-07-17 20:12:00,79.6,75.0,30.10,NNW,333,4.0,4.0,85,0.01,,,0.01,5,weatherlink.com 1.10,2013-07-18 00:12:00,
2013-07-17 20:27:00,78.1,75.0,30.11,North,9,2.0,5.0,90,0.05,,,0.05,0,weatherlink.com 1.10,2013-07-18 00:27:00,
2013-07-17 20:42:00,76.7,74.0,30.10,North,355,3.0,6.0,91,0.05,,,0.05,0,weatherlink.com 1.10,2013-07-18 00:42:00,
2013-07-17 20:57:00,75.9,74.0,30.10,NNE,16,2.0,2.0,92,0.05,,,0.05,0,weatherlink.com 1.10,2013-07-18 00:57:00,
2013-07-17 21:12:00,75.5,73.0,30.11,NE,53,0.0,0.0,92,0.03,,,0.05,0,weatherlink.com 1.10,2013-07-18 01:12:00,
2013-07-17 21:27:00,75.9,74.0,30.11,NW,323,0.0,4.0,93,0.00,,,0.05,0,weatherlink.com 1.10,2013-07-18 01:27:00,
2013-07-17 21:42:00,75.6,74.0,30.11,NW,323,0.0,0.0,93,0.00,,,0.05,0,weatherlink.com 1.10,2013-07-18 01:42:00,
2013-07-17 21:57:00,75.4,73.0,30.11,NW,323,0.0,0.0,93,0.00,,,0.05,0,weatherlink.com 1.10,2013-07-18 01:57:00,
2013-07-17 22:12:00,75.4,74.0,30.10,NW,324,0.0,0.0,94,0.00,,,0.05,0,weatherlink.com 1.10,2013-07-18 02:12:00,
2013-07-17 22:27:00,74.9,73.0,30.11,NW,324,0.0,0.0,93,0.00,,,0.05,0,weatherlink.com 1.10,2013-07-18 02:27:00,
2013-07-17 22:42:00,75.3,74.0,30.11,North,355,0.0,1.0,94,0.00,,,0.05,0,weatherlink.com 1.10,2013-07-18 02:42:00,
2013-07-17 22:57:00,75.1,73.0,30.12,North,355,0.0,0.0,94,0.00,,,0.05,0,weatherlink.com 1.10,2013-07-18 02:57:00,
2013-07-17 23:12:00,74.4,73.0,30.12,East,87,0.0,1.0,94,0.00,,,0.05,0,weatherlink.com 1.10,2013-07-18 03:12:00,
2013-07-17 23:27:00,75.0,74.0,30.12,East,87,0.0,0.0,95,0.00,,,0.05,0,weatherlink.com 1.10,2013-07-18 03:27:00,
2013-07-17 23:42:00,75.1,74.0,30.11,East,87,0.0,0.0,95,0.00,,,0.05,0,weatherlink.com 1.10,2013-07-18 03:42:00,
2013-07-17 23:57:00,75.4,74.0,30.11,East,87,0.0,0.0,95,0.00,,,0.05,0,weatherlink.com 1.10,2013-07-18 03:57:00,